Wofford Heights, California
Current Conditions -  °F | °C
As of 1:54 PM on Thursday 18 Dec 2014 (Local Time) from KBFL Reporting Station
Clear Clear  
Wind Chill: 63°   Ceiling: Unl
Heat Index: 63°   Visibility: 10mi
Dew Point: 41°   Wind: 9mph
Humidity: 45%   Direction: 360°N
Pressure: 30.14"   Gusts: NA
Location:  35.71°N, 118.47°W
Report Text: KBFL 182154Z 36008KT 10SM CLR 17/05 A3014 RMK AO2 SLP203 T01720050
Loading
Personal Weather Stations






























Interactive Weather Map New forecast layout! Learn more

10-Day Weather Forecast

Advertisements
Track Severe Weather on mobile